Time;durP1;ratioP1;P1;durP2;ratioP2;P2;SDS_P1;SDS_P2;PMS_P1;PMS_P2;Temp;Humidity;BMP_temperature;BMP_pressure;BME280_temperature;BME280_humidity;BME280_pressure;Samples;Min_cycle;Max_cycle;Signal;HPM_P1;HPM_P2
2023/09/25 00:01:32;;;;;;;5.70;2.38;;;;;;;;;;5112916;28;20062;-78
2023/09/25 00:03:58;;;;;;;5.97;2.17;;;;;;;;;;5111262;28;20056;-77
2023/09/25 00:06:25;;;;;;;4.25;2.40;;;;;;;;;;5112974;28;20172;-77
2023/09/25 00:08:51;;;;;;;5.63;2.25;;;;;;;;;;5095241;28;20180;-77
2023/09/25 00:11:17;;;;;;;4.75;2.17;;;;;;;;;;5113054;28;20423;-77
2023/09/25 00:13:43;;;;;;;3.67;2.00;;;;;;;;;;5113070;28;20415;-76
2023/09/25 00:16:19;;;;;;;5.95;2.25;;;;;;;;;;5112801;28;20422;-77
2023/09/25 00:18:45;;;;;;;;;;;;;;;;;;5112080;28;20078;-76
2023/09/25 00:21:11;;;;;;;;;;;;;;;;;;5111529;28;19920;-76
2023/09/25 00:23:38;;;;;;;4.70;2.45;;;;;;;;;;5111437;28;19923;-77
2023/09/25 00:26:04;;;;;;;4.28;2.38;;;;;;;;;;5099069;28;20407;-76
2023/09/25 00:28:31;;;;;;;5.38;2.25;;;;;;;;;;5105502;28;20046;-75
2023/09/25 00:30:57;;;;;;;4.57;2.38;;;;;;;;;;5123469;28;20072;-77
2023/09/25 00:33:23;;;;;;;6.07;2.30;;;;;;;;;;5132959;28;20047;-76
2023/09/25 00:35:49;;;;;;;4.43;2.40;;;;;;;;;;5129520;28;20051;-76
2023/09/25 00:38:15;;;;;;;6.30;2.38;;;;;;;;;;5114553;27;20051;-76
2023/09/25 00:40:41;;;;;;;4.18;2.28;;;;;;;;;;5148051;27;20043;-77
2023/09/25 00:43:07;;;;;;;7.32;2.50;;;;;;;;;;5142843;27;20047;-78
2023/09/25 00:45:37;;;;;;;5.93;2.35;;;;;;;;;;5149605;27;20118;-77
2023/09/25 00:48:04;;;;;;;3.75;2.10;;;;;;;;;;5137267;27;20099;-78
2023/09/25 00:50:31;;;;;;;3.40;2.10;;;;;;;;;;5136697;27;20442;-77
2023/09/25 00:53:03;;;;;;;4.35;2.30;;;;;;;;;;5119212;27;20460;-78
2023/09/25 00:55:30;;;;;;;3.88;2.45;;;;;;;;;;5135447;27;20055;-77
2023/09/25 00:57:56;;;;;;;3.03;2.33;;;;;;;;;;5135927;27;20043;-77
2023/09/25 01:00:23;;;;;;;4.53;2.70;;;;;;;;;;5116529;27;20398;-77
2023/09/25 01:02:49;;;;;;;3.92;2.40;;;;;;;;;;5130226;27;20369;-78
2023/09/25 01:05:15;;;;;;;5.50;2.42;;;;;;;;;;5136551;27;20464;-77
2023/09/25 01:07:41;;;;;;;6.95;2.70;;;;;;;;;;5136899;27;20050;-76
2023/09/25 01:10:09;;;;;;;4.70;2.50;;;;;;;;;;5136658;27;20042;-76
2023/09/25 01:12:37;;;;;;;4.85;2.63;;;;;;;;;;5136980;27;20108;-76
2023/09/25 01:15:03;;;;;;;4.93;2.58;;;;;;;;;;5136448;27;20427;-76
2023/09/25 01:17:29;;;;;;;5.85;2.50;;;;;;;;;;5136434;27;20050;-76
2023/09/25 01:19:55;;;;;;;5.63;2.75;;;;;;;;;;5136544;27;20441;-76
2023/09/25 01:22:21;;;;;;;4.03;2.50;;;;;;;;;;5137050;27;20042;-76
2023/09/25 01:24:47;;;;;;;5.47;2.70;;;;;;;;;;5136578;27;20129;-76
2023/09/25 01:27:13;;;;;;;5.63;2.85;;;;;;;;;;5116144;27;20130;-76
2023/09/25 01:29:40;;;;;;;5.97;2.63;;;;;;;;;;5115859;27;20476;-76
2023/09/25 01:32:06;;;;;;;5.05;2.53;;;;;;;;;;5081369;27;20047;-76
2023/09/25 01:34:34;;;;;;;5.35;2.92;;;;;;;;;;5136007;27;20138;-76
2023/09/25 01:37:00;;;;;;;6.25;2.85;;;;;;;;;;5146363;27;20078;-76
2023/09/25 01:39:26;;;;;;;6.05;3.10;;;;;;;;;;5136690;27;20053;-76
2023/09/25 01:41:52;;;;;;;5.60;3.08;;;;;;;;;;5137147;27;20039;-76
2023/09/25 01:44:18;;;;;;;3.92;2.65;;;;;;;;;;5135614;27;20051;-76
2023/09/25 01:46:44;;;;;;;5.65;2.75;;;;;;;;;;5130079;27;20588;-76
2023/09/25 01:49:10;;;;;;;3.90;2.70;;;;;;;;;;5156345;27;20179;-76
2023/09/25 01:51:37;;;;;;;5.05;3.22;;;;;;;;;;5155334;27;20051;-76
2023/09/25 01:54:04;;;;;;;6.05;2.83;;;;;;;;;;5135759;27;20053;-78
2023/09/25 01:56:30;;;;;;;5.97;3.00;;;;;;;;;;5132777;27;20054;-77
2023/09/25 01:58:56;;;;;;;5.68;3.33;;;;;;;;;;5135960;27;20043;-78
2023/09/25 02:01:22;;;;;;;4.75;3.08;;;;;;;;;;5135403;27;20537;-77
2023/09/25 02:03:48;;;;;;;5.03;3.28;;;;;;;;;;5101176;27;20051;-77
2023/09/25 02:06:14;;;;;;;7.07;3.00;;;;;;;;;;5116968;27;20047;-77
2023/09/25 02:08:40;;;;;;;6.30;3.05;;;;;;;;;;5109029;27;20441;-77
2023/09/25 02:11:07;;;;;;;6.90;3.20;;;;;;;;;;5137501;27;20047;-77
2023/09/25 02:13:33;;;;;;;9.13;3.35;;;;;;;;;;5136709;27;20051;-77
2023/09/25 02:15:59;;;;;;;7.00;3.03;;;;;;;;;;5135345;27;20085;-77
2023/09/25 02:18:25;;;;;;;4.10;3.00;;;;;;;;;;5124699;27;20047;-77
2023/09/25 02:20:52;;;;;;;5.43;3.00;;;;;;;;;;5114654;27;20126;-77
2023/09/25 02:23:19;;;;;;;6.47;3.10;;;;;;;;;;5086722;27;20073;-77
2023/09/25 02:25:45;;;;;;;6.68;3.00;;;;;;;;;;5146138;27;20065;-77
2023/09/25 02:28:11;;;;;;;5.20;3.05;;;;;;;;;;5134708;27;20463;-77
2023/09/25 02:30:37;;;;;;;6.72;3.08;;;;;;;;;;5139393;27;20042;-78
2023/09/25 02:33:04;;;;;;;6.32;3.20;;;;;;;;;;5137304;27;20051;-77
2023/09/25 02:35:31;;;;;;;4.63;2.90;;;;;;;;;;5137814;27;20055;-76
2023/09/25 02:37:57;;;;;;;4.32;3.10;;;;;;;;;;5139058;27;20189;-77
2023/09/25 02:40:24;;;;;;;8.15;3.13;;;;;;;;;;5117649;27;20050;-77
2023/09/25 02:42:50;;;;;;;6.32;3.47;;;;;;;;;;5135649;27;20046;-77
2023/09/25 02:45:17;;;;;;;6.93;3.08;;;;;;;;;;5118842;27;20039;-77
2023/09/25 02:47:43;;;;;;;6.30;3.17;;;;;;;;;;5155284;27;20099;-77
2023/09/25 02:50:10;;;;;;;4.75;3.10;;;;;;;;;;5136904;27;20463;-77
2023/09/25 02:52:36;;;;;;;4.82;3.17;;;;;;;;;;5136682;27;20372;-77
2023/09/25 02:55:02;;;;;;;4.80;3.03;;;;;;;;;;5136506;27;20045;-77
2023/09/25 02:57:28;;;;;;;6.15;3.20;;;;;;;;;;5146889;27;20092;-77
2023/09/25 02:59:54;;;;;;;6.40;3.22;;;;;;;;;;5116047;27;20043;-76
2023/09/25 03:02:21;;;;;;;5.38;2.90;;;;;;;;;;5127051;27;20130;-76
2023/09/25 03:04:48;;;;;;;7.00;3.00;;;;;;;;;;5116931;27;20043;-76
2023/09/25 03:07:14;;;;;;;6.60;3.20;;;;;;;;;;5117877;27;20043;-76
2023/09/25 03:09:40;;;;;;;4.65;2.97;;;;;;;;;;5115754;27;20534;-76
2023/09/25 03:12:06;;;;;;;5.28;2.97;;;;;;;;;;5132939;27;20047;-76
2023/09/25 03:14:32;;;;;;;6.85;3.20;;;;;;;;;;5133984;27;20099;-76
2023/09/25 03:16:58;;;;;;;4.28;3.00;;;;;;;;;;5131750;27;20172;-77
2023/09/25 03:19:24;;;;;;;4.57;2.88;;;;;;;;;;5130706;27;20035;-77
2023/09/25 03:21:51;;;;;;;5.47;3.13;;;;;;;;;;5115644;27;20054;-76
2023/09/25 03:24:17;;;;;;;5.07;3.20;;;;;;;;;;5134029;27;20039;-77
2023/09/25 03:26:43;;;;;;;6.20;3.22;;;;;;;;;;5116302;27;20051;-76
2023/09/25 03:29:09;;;;;;;5.18;3.25;;;;;;;;;;5113431;28;20067;-77
2023/09/25 03:31:35;;;;;;;6.55;3.35;;;;;;;;;;5113308;28;20048;-76
2023/09/25 03:34:01;;;;;;;5.38;3.28;;;;;;;;;;5133723;27;20413;-78
2023/09/25 03:36:27;;;;;;;5.55;3.40;;;;;;;;;;5154230;27;20134;-78
2023/09/25 03:38:53;;;;;;;5.57;3.40;;;;;;;;;;5120647;27;20384;-77
2023/09/25 03:41:19;;;;;;;6.35;2.83;;;;;;;;;;5133747;27;20501;-77
2023/09/25 03:43:45;;;;;;;7.72;3.30;;;;;;;;;;5133965;27;20118;-78
2023/09/25 03:46:11;;;;;;;4.40;3.45;;;;;;;;;;5151778;27;20081;-77
2023/09/25 03:48:37;;;;;;;6.18;3.45;;;;;;;;;;5134399;27;20412;-77
2023/09/25 03:51:03;;;;;;;5.00;2.90;;;;;;;;;;5135612;27;20071;-77
2023/09/25 03:53:30;;;;;;;5.95;3.40;;;;;;;;;;5117214;27;20090;-77
2023/09/25 03:55:56;;;;;;;6.38;3.60;;;;;;;;;;5133378;27;20039;-77
2023/09/25 03:58:22;;;;;;;5.10;3.20;;;;;;;;;;5114977;27;20491;-77
2023/09/25 04:00:48;;;;;;;5.90;3.53;;;;;;;;;;5142071;27;20034;-78
2023/09/25 04:03:14;;;;;;;6.70;3.30;;;;;;;;;;5131308;27;20047;-75
2023/09/25 04:05:40;;;;;;;7.15;3.35;;;;;;;;;;5118390;27;20167;-77
2023/09/25 04:08:06;;;;;;;4.97;3.30;;;;;;;;;;5098646;28;20103;-77
2023/09/25 04:10:32;;;;;;;5.30;3.40;;;;;;;;;;5133438;27;20040;-77
2023/09/25 04:12:59;;;;;;;6.35;3.30;;;;;;;;;;5115164;28;20042;-77
2023/09/25 04:15:25;;;;;;;6.40;3.30;;;;;;;;;;5133119;27;20039;-77
2023/09/25 04:17:52;;;;;;;4.63;3.10;;;;;;;;;;5117218;27;20395;-76
2023/09/25 04:20:24;;;;;;;6.15;3.33;;;;;;;;;;5135557;27;20049;-77
2023/09/25 04:22:56;;;;;;;5.63;3.10;;;;;;;;;;5136670;27;20039;-77
2023/09/25 04:25:22;;;;;;;5.35;3.17;;;;;;;;;;5137718;27;20049;-78
2023/09/25 04:27:49;;;;;;;5.00;3.30;;;;;;;;;;5119473;27;20046;-78
2023/09/25 04:30:15;;;;;;;5.15;3.30;;;;;;;;;;5121640;27;20043;-77
2023/09/25 04:32:43;;;;;;;7.00;3.03;;;;;;;;;;5149182;27;20031;-76
2023/09/25 04:35:10;;;;;;;6.40;3.10;;;;;;;;;;5120943;27;20406;-77
2023/09/25 04:37:37;;;;;;;5.72;3.35;;;;;;;;;;5110012;27;20050;-77
2023/09/25 04:40:10;;;;;;;5.10;3.25;;;;;;;;;;5110723;27;20054;-77
2023/09/25 04:42:36;;;;;;;4.75;3.33;;;;;;;;;;5148313;27;20407;-77
2023/09/25 04:45:02;;;;;;;6.25;3.55;;;;;;;;;;5134656;27;20087;-78
2023/09/25 04:47:28;;;;;;;6.70;3.40;;;;;;;;;;5137045;27;20451;-77
2023/09/25 04:49:54;;;;;;;6.72;3.60;;;;;;;;;;5137375;27;20043;-78
2023/09/25 04:52:23;;;;;;;6.15;3.50;;;;;;;;;;5137182;27;20054;-78
2023/09/25 04:54:50;;;;;;;8.25;3.67;;;;;;;;;;5136888;27;20082;-78
2023/09/25 04:57:16;;;;;;;5.53;3.67;;;;;;;;;;5136836;27;20062;-76
2023/09/25 04:59:42;;;;;;;6.47;3.50;;;;;;;;;;5133950;27;20448;-77
2023/09/25 05:02:08;;;;;;;5.40;3.50;;;;;;;;;;5135683;27;20457;-76
2023/09/25 05:04:36;;;;;;;5.53;3.75;;;;;;;;;;5136984;27;20045;-76
2023/09/25 05:07:02;;;;;;;4.97;3.65;;;;;;;;;;5113370;27;20051;-76
2023/09/25 05:09:28;;;;;;;5.60;3.65;;;;;;;;;;5118524;27;20103;-76
2023/09/25 05:11:54;;;;;;;7.00;3.47;;;;;;;;;;5117947;27;20095;-76
2023/09/25 05:14:21;;;;;;;5.85;3.50;;;;;;;;;;5101195;27;20491;-76
2023/09/25 05:16:47;;;;;;;7.65;3.60;;;;;;;;;;5136523;27;20047;-76
2023/09/25 05:19:13;;;;;;;6.25;3.40;;;;;;;;;;5136610;27;20122;-77
2023/09/25 05:21:39;;;;;;;7.65;3.72;;;;;;;;;;5117716;27;20043;-76
2023/09/25 05:24:05;;;;;;;5.13;3.60;;;;;;;;;;5119310;27;20054;-76
2023/09/25 05:26:36;;;;;;;7.68;3.50;;;;;;;;;;5119926;27;20047;-76
2023/09/25 05:29:02;;;;;;;6.35;3.65;;;;;;;;;;5092296;28;20127;-77
2023/09/25 05:31:28;;;;;;;8.60;3.90;;;;;;;;;;5130922;27;20508;-77
2023/09/25 05:33:54;;;;;;;6.55;3.78;;;;;;;;;;5139638;27;20530;-77
2023/09/25 05:36:20;;;;;;;7.88;3.67;;;;;;;;;;5133744;27;20054;-77
2023/09/25 05:38:47;;;;;;;8.70;3.70;;;;;;;;;;5134959;27;20051;-78
2023/09/25 05:41:14;;;;;;;5.70;3.50;;;;;;;;;;5133916;27;20510;-77
2023/09/25 05:43:40;;;;;;;7.30;3.50;;;;;;;;;;5136290;27;20053;-78
2023/09/25 05:46:07;;;;;;;7.20;3.50;;;;;;;;;;5135651;27;20176;-77
2023/09/25 05:48:33;;;;;;;9.18;3.70;;;;;;;;;;5117631;27;20543;-77
2023/09/25 05:50:59;;;;;;;6.25;3.50;;;;;;;;;;5119767;27;20053;-77
2023/09/25 05:53:27;;;;;;;5.35;3.33;;;;;;;;;;5146767;27;20043;-77
2023/09/25 05:55:55;;;;;;;6.18;3.42;;;;;;;;;;5135329;27;20119;-77
2023/09/25 05:58:21;;;;;;;8.15;3.45;;;;;;;;;;5135865;27;20053;-77
2023/09/25 06:00:47;;;;;;;7.50;3.47;;;;;;;;;;5117049;27;20122;-77
2023/09/25 06:03:14;;;;;;;8.32;3.42;;;;;;;;;;5118050;27;20103;-77
2023/09/25 06:05:40;;;;;;;7.15;3.60;;;;;;;;;;5135333;27;20046;-77
2023/09/25 06:08:07;;;;;;;7.35;3.47;;;;;;;;;;5117505;27;20039;-77
2023/09/25 06:10:33;;;;;;;5.45;3.28;;;;;;;;;;5116607;27;20066;-76
2023/09/25 06:13:02;;;;;;;5.85;3.40;;;;;;;;;;5109296;27;20046;-78
2023/09/25 06:15:31;;;;;;;6.07;3.25;;;;;;;;;;5099558;27;20154;-77
2023/09/25 06:17:59;;;;;;;6.10;3.30;;;;;;;;;;5115391;27;20099;-77
2023/09/25 06:20:26;;;;;;;9.13;3.42;;;;;;;;;;5117809;27;20332;-77
2023/09/25 06:22:53;;;;;;;8.32;3.50;;;;;;;;;;5137446;27;20403;-77
2023/09/25 06:25:19;;;;;;;5.95;3.15;;;;;;;;;;5130776;27;20195;-77
2023/09/25 06:27:45;;;;;;;6.57;3.03;;;;;;;;;;5099957;27;20043;-77
2023/09/25 06:30:12;;;;;;;9.43;3.47;;;;;;;;;;5131908;27;20043;-77
2023/09/25 06:32:38;;;;;;;6.60;3.20;;;;;;;;;;5118646;27;20053;-76
2023/09/25 06:35:06;;;;;;;10.07;3.58;;;;;;;;;;5139194;27;20047;-76
2023/09/25 06:37:32;;;;;;;7.07;3.30;;;;;;;;;;5143739;27;20483;-77
2023/09/25 06:39:59;;;;;;;6.63;3.20;;;;;;;;;;5126779;27;20047;-77
2023/09/25 06:42:25;;;;;;;8.02;3.50;;;;;;;;;;5134511;27;20047;-77
2023/09/25 06:44:51;;;;;;;7.47;2.95;;;;;;;;;;5115833;27;20045;-77
2023/09/25 06:47:17;;;;;;;9.75;3.38;;;;;;;;;;5115982;27;20117;-76
2023/09/25 06:49:43;;;;;;;6.82;3.58;;;;;;;;;;5136992;27;20095;-78
2023/09/25 06:52:09;;;;;;;5.50;3.00;;;;;;;;;;5134786;27;20409;-78
2023/09/25 06:54:35;;;;;;;5.50;3.00;;;;;;;;;;5124996;27;20051;-78
2023/09/25 06:57:01;;;;;;;9.57;3.17;;;;;;;;;;5116100;27;20092;-78
2023/09/25 06:59:28;;;;;;;8.27;3.75;;;;;;;;;;5134352;27;20082;-78
2023/09/25 07:01:54;;;;;;;8.15;3.38;;;;;;;;;;5116055;27;20043;-77
2023/09/25 07:04:21;;;;;;;6.97;3.33;;;;;;;;;;5118742;27;20103;-76
2023/09/25 07:06:47;;;;;;;5.78;2.92;;;;;;;;;;5154765;27;20042;-76
2023/09/25 07:09:14;;;;;;;5.05;3.05;;;;;;;;;;5112521;27;20118;-77
2023/09/25 07:11:41;;;;;;;5.63;3.15;;;;;;;;;;5102608;27;20050;-77
2023/09/25 07:14:07;;;;;;;8.73;3.13;;;;;;;;;;5129982;27;20055;-77
2023/09/25 07:16:35;;;;;;;6.90;3.15;;;;;;;;;;5089549;27;20039;-77
2023/09/25 07:19:01;;;;;;;6.40;3.00;;;;;;;;;;5130354;27;20113;-77
2023/09/25 07:21:27;;;;;;;6.75;3.20;;;;;;;;;;5116650;27;20513;-78
2023/09/25 07:23:53;;;;;;;5.90;3.15;;;;;;;;;;5145357;27;20035;-77
2023/09/25 07:26:19;;;;;;;5.30;3.05;;;;;;;;;;5117666;27;20055;-77
2023/09/25 07:28:49;;;;;;;6.50;3.15;;;;;;;;;;5113559;28;20120;-77
2023/09/25 07:31:18;;;;;;;4.95;3.10;;;;;;;;;;5127876;27;20039;-78
2023/09/25 07:33:45;;;;;;;6.38;3.03;;;;;;;;;;5150936;27;20042;-77
2023/09/25 07:36:11;;;;;;;6.38;3.15;;;;;;;;;;5118265;27;20059;-77
2023/09/25 07:38:38;;;;;;;5.45;3.13;;;;;;;;;;5117810;27;20043;-76
2023/09/25 07:41:05;;;;;;;5.55;2.92;;;;;;;;;;5098217;27;20047;-77
2023/09/25 07:43:32;;;;;;;4.80;2.90;;;;;;;;;;5099386;27;20047;-78
2023/09/25 07:45:59;;;;;;;5.25;2.95;;;;;;;;;;5114774;27;20442;-78
2023/09/25 07:48:25;;;;;;;5.35;2.80;;;;;;;;;;5100419;27;20725;-77
2023/09/25 07:50:55;;;;;;;5.88;2.78;;;;;;;;;;5120623;27;20047;-77
2023/09/25 07:53:23;;;;;;;7.10;2.97;;;;;;;;;;5136110;27;20043;-76
2023/09/25 07:55:49;;;;;;;5.05;2.70;;;;;;;;;;5134829;27;20047;-77
2023/09/25 07:58:15;;;;;;;5.07;3.10;;;;;;;;;;5115350;28;20058;-77
2023/09/25 08:00:44;;;;;;;5.75;2.90;;;;;;;;;;5142757;27;20039;-78
2023/09/25 08:03:15;;;;;;;4.22;2.75;;;;;;;;;;5122985;27;20039;-78
2023/09/25 08:05:42;;;;;;;5.03;3.08;;;;;;;;;;5129508;27;20422;-78
2023/09/25 08:08:11;;;;;;;5.78;3.05;;;;;;;;;;5130676;27;20090;-77
2023/09/25 08:10:38;;;;;;;6.32;3.22;;;;;;;;;;5130483;27;20041;-77
2023/09/25 08:13:04;;;;;;;5.07;2.78;;;;;;;;;;5154032;27;20054;-77
2023/09/25 08:15:30;;;;;;;4.95;2.97;;;;;;;;;;5134954;27;20039;-77
2023/09/25 08:17:56;;;;;;;6.43;2.85;;;;;;;;;;5118370;27;20043;-77
2023/09/25 08:20:26;;;;;;;6.38;3.08;;;;;;;;;;5151804;27;20043;-78
2023/09/25 08:22:53;;;;;;;6.10;3.15;;;;;;;;;;5135510;27;20042;-78
2023/09/25 08:25:20;;;;;;;7.50;3.28;;;;;;;;;;5122813;27;20118;-78
2023/09/25 08:27:46;;;;;;;3.67;2.42;;;;;;;;;;5132400;28;20043;-77
2023/09/25 08:30:13;;;;;;;5.70;3.15;;;;;;;;;;5132851;28;20047;-79
2023/09/25 08:32:39;;;;;;;4.85;2.78;;;;;;;;;;5131095;28;20055;-78
2023/09/25 08:35:09;;;;;;;7.80;2.60;;;;;;;;;;5108683;28;20119;-77
2023/09/25 08:37:36;;;;;;;6.20;3.00;;;;;;;;;;5087902;28;20495;-78
2023/09/25 08:40:02;;;;;;;7.80;2.78;;;;;;;;;;5119680;27;20052;-78
2023/09/25 08:42:28;;;;;;;6.03;2.88;;;;;;;;;;5094173;28;20046;-79
2023/09/25 08:44:59;;;;;;;5.57;2.47;;;;;;;;;;5113359;28;20039;-78
2023/09/25 08:47:26;;;;;;;4.90;2.95;;;;;;;;;;5132848;28;20051;-79
2023/09/25 08:49:53;;;;;;;5.55;2.70;;;;;;;;;;5115170;27;20104;-80
2023/09/25 08:52:20;;;;;;;5.97;2.60;;;;;;;;;;5133041;27;20065;-78
2023/09/25 08:54:48;;;;;;;5.22;2.58;;;;;;;;;;5136074;27;20083;-79
2023/09/25 08:57:15;;;;;;;4.78;2.50;;;;;;;;;;5114806;27;20487;-78
2023/09/25 08:59:44;;;;;;;4.50;2.35;;;;;;;;;;5117420;27;20059;-85
2023/09/25 09:02:11;;;;;;;10.73;3.08;;;;;;;;;;5101402;27;20038;-79
2023/09/25 09:04:38;;;;;;;11.90;3.00;;;;;;;;;;5145723;27;20535;-80
2023/09/25 09:07:05;;;;;;;6.35;2.85;;;;;;;;;;5136485;27;20039;-82
2023/09/25 09:09:31;;;;;;;5.50;2.40;;;;;;;;;;5107741;27;20046;-82
2023/09/25 09:11:58;;;;;;;12.00;3.33;;;;;;;;;;5129196;27;20118;-81
2023/09/25 09:14:34;;;;;;;8.00;2.70;;;;;;;;;;5133644;27;20079;-79
2023/09/25 09:17:00;;;;;;;8.43;2.53;;;;;;;;;;5119586;27;20093;-77
2023/09/25 09:19:26;;;;;;;5.32;2.40;;;;;;;;;;5117939;27;20054;-77
2023/09/25 09:22:08;;;;;;;5.35;2.72;;;;;;;;;;5117671;27;20168;-71
2023/09/25 09:24:37;;;;;;;10.70;2.60;;;;;;;;;;5135967;27;20089;-88
2023/09/25 09:27:07;;;;;;;4.82;2.30;;;;;;;;;;5122772;27;20097;-85
2023/09/25 09:29:41;;;;;;;4.85;2.50;;;;;;;;;;5119545;27;20133;-86
2023/09/25 09:32:08;;;;;;;6.88;2.63;;;;;;;;;;5119862;27;20084;-86
2023/09/25 09:34:34;;;;;;;5.18;2.50;;;;;;;;;;5117247;27;20047;-85
2023/09/25 09:37:00;;;;;;;6.40;2.30;;;;;;;;;;5102020;27;20039;-86
2023/09/25 09:39:34;;;;;;;5.72;2.60;;;;;;;;;;5101674;27;20043;-87
2023/09/25 09:42:04;;;;;;;4.68;2.30;;;;;;;;;;5102210;27;20507;-87
2023/09/25 09:44:30;;;;;;;4.95;2.33;;;;;;;;;;5102563;27;20039;-86
2023/09/25 09:46:56;;;;;;;4.60;2.20;;;;;;;;;;5102175;27;20069;-86
2023/09/25 09:49:24;;;;;;;4.45;2.20;;;;;;;;;;5100813;27;20039;-87
2023/09/25 09:51:51;;;;;;;5.88;2.35;;;;;;;;;;5101751;27;20472;-87
2023/09/25 09:54:18;;;;;;;5.47;2.50;;;;;;;;;;5102572;27;20119;-86
2023/09/25 09:56:47;;;;;;;5.53;2.40;;;;;;;;;;5102039;27;20043;-87
2023/09/25 09:59:14;;;;;;;4.75;2.30;;;;;;;;;;5100455;27;20475;-86
2023/09/25 10:01:42;;;;;;;4.50;2.22;;;;;;;;;;5116517;27;20043;-86
2023/09/25 10:04:08;;;;;;;4.60;2.30;;;;;;;;;;5101383;27;20043;-86
2023/09/25 10:06:47;;;;;;;3.80;2.20;;;;;;;;;;5101563;27;20065;-87
2023/09/25 10:09:15;;;;;;;4.13;2.30;;;;;;;;;;5101173;27;20367;-87
2023/09/25 10:11:46;;;;;;;4.18;2.42;;;;;;;;;;5101291;27;20047;-87
2023/09/25 10:14:13;;;;;;;4.93;2.20;;;;;;;;;;5101276;27;20373;-87
2023/09/25 10:17:09;;;;;;;4.95;2.20;;;;;;;;;;5100876;27;20042;-87
2023/09/25 10:19:41;;;;;;;4.78;2.20;;;;;;;;;;5084444;27;20103;-87
2023/09/25 10:22:11;;;;;;;4.32;2.40;;;;;;;;;;5118463;27;20054;-88
2023/09/25 10:24:37;;;;;;;5.07;2.20;;;;;;;;;;5102317;27;20091;-86
2023/09/25 10:27:04;;;;;;;3.95;2.20;;;;;;;;;;5101513;27;20046;-87
2023/09/25 10:29:30;;;;;;;4.90;2.30;;;;;;;;;;5101153;27;20130;-87
2023/09/25 10:31:57;;;;;;;5.10;2.08;;;;;;;;;;5101714;27;20035;-77
2023/09/25 10:34:26;;;;;;;4.35;2.10;;;;;;;;;;5153010;27;20054;-78
2023/09/25 10:36:59;;;;;;;4.38;2.30;;;;;;;;;;5155527;27;20042;-78
2023/09/25 10:39:25;;;;;;;4.32;2.30;;;;;;;;;;5155430;27;20518;-77
2023/09/25 10:41:59;;;;;;;3.60;1.90;;;;;;;;;;5155359;27;20039;-77
2023/09/25 10:44:25;;;;;;;4.03;2.00;;;;;;;;;;5136792;27;20046;-77
2023/09/25 10:46:51;;;;;;;5.97;2.10;;;;;;;;;;5155469;27;20039;-77
2023/09/25 10:49:18;;;;;;;4.18;2.10;;;;;;;;;;5153999;27;20444;-77
2023/09/25 10:51:44;;;;;;;4.10;2.03;;;;;;;;;;5150297;27;20131;-77
2023/09/25 10:54:10;;;;;;;3.83;2.10;;;;;;;;;;5151868;27;20042;-77
2023/09/25 10:56:36;;;;;;;3.72;1.90;;;;;;;;;;5115653;27;20085;-76
2023/09/25 10:59:03;;;;;;;4.63;1.92;;;;;;;;;;5133280;27;20099;-76
2023/09/25 11:01:31;;;;;;;3.10;1.73;;;;;;;;;;5149700;27;20057;-77
2023/09/25 11:03:59;;;;;;;3.65;2.10;;;;;;;;;;5133262;27;20054;-77
2023/09/25 11:06:26;;;;;;;3.45;1.90;;;;;;;;;;5133024;27;20474;-77
2023/09/25 11:09:13;;;;;;;4.57;2.00;;;;;;;;;;5133675;27;20394;-77
2023/09/25 11:11:40;;;;;;;4.30;2.15;;;;;;;;;;5119554;27;20586;-76
2023/09/25 11:14:07;;;;;;;7.78;2.13;;;;;;;;;;5131298;27;20065;-77
2023/09/25 11:16:34;;;;;;;6.05;2.10;;;;;;;;;;5133062;27;20514;-77
2023/09/25 11:19:07;;;;;;;4.63;2.15;;;;;;;;;;5133136;27;20049;-77
2023/09/25 11:21:33;;;;;;;4.97;1.80;;;;;;;;;;5149729;27;20062;-77
2023/09/25 11:23:59;;;;;;;3.67;1.90;;;;;;;;;;5151798;27;20043;-77
2023/09/25 11:26:27;;;;;;;4.78;1.90;;;;;;;;;;5102584;27;20083;-77
2023/09/25 11:28:56;;;;;;;3.65;2.00;;;;;;;;;;5094721;28;20048;-77
2023/09/25 11:31:22;;;;;;;3.97;2.03;;;;;;;;;;5113286;28;20088;-77
2023/09/25 11:33:48;;;;;;;3.67;2.03;;;;;;;;;;5113180;28;20047;-77
2023/09/25 11:36:14;;;;;;;5.38;2.10;;;;;;;;;;5091105;28;20048;-77
2023/09/25 11:38:41;;;;;;;3.75;1.95;;;;;;;;;;5111894;27;20054;-76
2023/09/25 11:41:08;;;;;;;4.10;2.10;;;;;;;;;;5111415;28;20122;-76
2023/09/25 11:43:35;;;;;;;4.65;1.88;;;;;;;;;;5112547;28;20412;-76
2023/09/25 11:46:01;;;;;;;3.97;2.05;;;;;;;;;;5094951;28;20047;-77
2023/09/25 11:48:27;;;;;;;5.65;2.30;;;;;;;;;;5113207;28;20131;-77
2023/09/25 11:50:53;;;;;;;5.57;2.17;;;;;;;;;;5112463;28;20040;-76
2023/09/25 11:53:19;;;;;;;4.72;2.38;;;;;;;;;;5112844;28;20429;-77
2023/09/25 11:55:48;;;;;;;4.00;2.05;;;;;;;;;;5111487;28;20325;-77
2023/09/25 11:58:14;;;;;;;5.43;2.30;;;;;;;;;;5112882;28;20120;-76
2023/09/25 12:00:41;;;;;;;3.78;2.15;;;;;;;;;;5112905;28;20066;-76
2023/09/25 12:03:08;;;;;;;7.80;2.30;;;;;;;;;;5094960;28;20043;-87
2023/09/25 12:05:35;;;;;;;3.97;2.05;;;;;;;;;;5096525;28;20138;-86
2023/09/25 12:08:01;;;;;;;7.22;2.45;;;;;;;;;;5097052;28;20055;-87
2023/09/25 12:10:27;;;;;;;6.72;2.28;;;;;;;;;;5096141;28;20120;-88
2023/09/25 12:12:53;;;;;;;5.75;2.60;;;;;;;;;;5096601;28;20046;-85
2023/09/25 12:15:21;;;;;;;4.22;2.00;;;;;;;;;;5096395;28;20127;-86
2023/09/25 12:17:48;;;;;;;5.63;2.53;;;;;;;;;;5114094;28;20044;-88
2023/09/25 12:20:14;;;;;;;3.67;2.00;;;;;;;;;;5096154;28;20044;-86
2023/09/25 12:22:41;;;;;;;4.25;1.77;;;;;;;;;;5096713;28;20036;-87
2023/09/25 12:25:09;;;;;;;6.63;2.40;;;;;;;;;;5096304;28;20039;-86
2023/09/25 12:27:36;;;;;;;5.55;2.75;;;;;;;;;;5096713;28;20050;-87
2023/09/25 12:30:03;;;;;;;4.43;2.40;;;;;;;;;;5095939;28;20043;-87
2023/09/25 12:32:29;;;;;;;3.75;2.05;;;;;;;;;;5095071;28;20078;-87
2023/09/25 12:34:56;;;;;;;3.63;2.00;;;;;;;;;;5095011;28;20059;-88
2023/09/25 12:37:25;;;;;;;4.20;2.13;;;;;;;;;;5091498;28;20055;-75
2023/09/25 12:39:51;;;;;;;5.95;2.38;;;;;;;;;;5111563;28;20048;-76
2023/09/25 12:42:19;;;;;;;5.40;2.40;;;;;;;;;;5112606;28;20501;-76
2023/09/25 12:44:46;;;;;;;4.30;2.42;;;;;;;;;;5113529;28;20130;-76
2023/09/25 12:47:13;;;;;;;6.13;2.30;;;;;;;;;;5113547;27;20089;-76
2023/09/25 12:49:39;;;;;;;4.78;2.10;;;;;;;;;;5121301;27;20474;-77
2023/09/25 12:52:05;;;;;;;4.82;2.17;;;;;;;;;;5133869;27;20155;-77
2023/09/25 12:54:31;;;;;;;5.15;2.78;;;;;;;;;;5116364;27;20089;-76
2023/09/25 12:56:59;;;;;;;6.75;2.47;;;;;;;;;;5111760;28;20054;-77
2023/09/25 12:59:25;;;;;;;4.22;2.25;;;;;;;;;;5111439;28;20702;-77
2023/09/25 13:01:51;;;;;;;7.38;2.75;;;;;;;;;;5111936;28;20039;-77
2023/09/25 13:04:17;;;;;;;5.65;2.25;;;;;;;;;;5111913;28;20184;-77
2023/09/25 13:06:44;;;;;;;7.10;2.00;;;;;;;;;;5112820;28;20036;-78
2023/09/25 13:09:11;;;;;;;5.32;2.25;;;;;;;;;;5112935;28;20491;-77
2023/09/25 13:11:38;;;;;;;5.85;2.50;;;;;;;;;;5111885;27;20046;-76
2023/09/25 13:14:04;;;;;;;7.07;2.35;;;;;;;;;;5115925;28;20054;-77
2023/09/25 13:16:31;;;;;;;6.93;2.72;;;;;;;;;;5119400;27;20031;-75
2023/09/25 13:18:57;;;;;;;4.57;2.38;;;;;;;;;;5118227;27;20047;-77
2023/09/25 13:21:24;;;;;;;8.93;2.50;;;;;;;;;;5097068;28;20046;-77
2023/09/25 13:23:51;;;;;;;5.50;2.50;;;;;;;;;;5113750;28;20095;-76
2023/09/25 13:26:18;;;;;;;5.22;2.25;;;;;;;;;;5110827;28;20163;-76
2023/09/25 13:28:44;;;;;;;5.90;2.17;;;;;;;;;;5115405;28;20040;-79
2023/09/25 13:31:10;;;;;;;4.80;2.45;;;;;;;;;;5114723;28;20097;-77
2023/09/25 13:33:36;;;;;;;4.90;2.10;;;;;;;;;;5115592;27;20051;-75
2023/09/25 13:36:05;;;;;;;4.25;2.20;;;;;;;;;;5131582;27;20054;-76
2023/09/25 13:38:31;;;;;;;4.18;2.05;;;;;;;;;;5117880;27;20043;-75
2023/09/25 13:40:57;;;;;;;6.15;2.30;;;;;;;;;;5136631;27;20046;-75
2023/09/25 13:43:24;;;;;;;5.63;2.25;;;;;;;;;;5140689;27;20043;-76
2023/09/25 13:45:50;;;;;;;4.85;2.30;;;;;;;;;;5156214;27;20046;-76
2023/09/25 13:48:17;;;;;;;6.32;2.40;;;;;;;;;;5156810;27;20042;-78
2023/09/25 13:50:43;;;;;;;7.22;2.40;;;;;;;;;;5154843;27;20164;-78
2023/09/25 13:53:09;;;;;;;4.05;2.20;;;;;;;;;;5154923;27;20053;-77
2023/09/25 13:55:35;;;;;;;4.57;2.17;;;;;;;;;;5137774;27;20046;-75
2023/09/25 13:58:01;;;;;;;5.75;2.20;;;;;;;;;;5156092;27;20050;-75
2023/09/25 14:00:27;;;;;;;4.30;2.38;;;;;;;;;;5156248;27;20103;-76
2023/09/25 14:02:53;;;;;;;4.30;2.15;;;;;;;;;;5156266;27;20039;-76
2023/09/25 14:05:19;;;;;;;4.05;1.85;;;;;;;;;;5156063;27;20042;-74
2023/09/25 14:07:46;;;;;;;5.70;2.60;;;;;;;;;;5156201;27;20506;-74
2023/09/25 14:10:16;;;;;;;4.35;2.00;;;;;;;;;;5155720;27;20371;-74
2023/09/25 14:12:44;;;;;;;4.53;2.40;;;;;;;;;;5156079;27;20469;-74
2023/09/25 14:15:12;;;;;;;5.63;2.30;;;;;;;;;;5155876;27;20114;-74
2023/09/25 14:17:38;;;;;;;4.18;2.20;;;;;;;;;;5156142;27;20047;-73
2023/09/25 14:20:05;;;;;;;4.68;2.15;;;;;;;;;;5155779;27;20046;-74
2023/09/25 14:22:32;;;;;;;5.32;2.50;;;;;;;;;;5153791;27;20038;-75
2023/09/25 14:24:59;;;;;;;4.60;2.40;;;;;;;;;;5134049;27;20087;-74
2023/09/25 14:27:25;;;;;;;6.03;2.42;;;;;;;;;;5144750;27;20439;-74
2023/09/25 14:29:52;;;;;;;5.25;2.47;;;;;;;;;;5155340;27;20035;-73
2023/09/25 14:32:18;;;;;;;5.15;2.15;;;;;;;;;;5126186;27;20388;-73
2023/09/25 14:34:44;;;;;;;6.88;2.40;;;;;;;;;;5132554;27;20051;-73
2023/09/25 14:37:10;;;;;;;5.28;2.35;;;;;;;;;;5114568;28;20185;-74
2023/09/25 14:39:36;;;;;;;3.83;2.33;;;;;;;;;;5095890;28;20048;-74
2023/09/25 14:42:02;;;;;;;3.80;2.22;;;;;;;;;;5097581;27;20039;-74